createdAt,value
2023-05-07T00:01:00.629Z,27.90
2023-05-07T00:06:11.950Z,27.20
2023-05-07T00:09:05.528Z,27.50
2023-05-07T00:12:35.839Z,27.80
2023-05-07T00:21:18.445Z,27.90
2023-05-07T00:24:23.298Z,27.80
2023-05-07T00:27:51.766Z,27.40
2023-05-07T00:30:54.175Z,27.40
2023-05-07T00:35:18.355Z,27.10
2023-05-07T00:39:17.106Z,26.60
2023-05-07T00:42:33.399Z,26.80
2023-05-07T00:47:23.087Z,26.60
2023-05-07T00:50:56.716Z,26.70
2023-05-07T00:54:35.504Z,27.00
2023-05-07T00:58:12.361Z,27.20
2023-05-07T01:01:38.657Z,27.30
2023-05-07T01:05:51.642Z,27.70
2023-05-07T01:09:09.511Z,27.00
2023-05-07T01:12:11.977Z,26.60
2023-05-07T01:15:30.859Z,25.90
2023-05-07T01:18:36.294Z,26.00
2023-05-07T01:31:28.200Z,27.40
2023-05-07T01:35:36.980Z,26.70
2023-05-07T01:39:59.439Z,27.10
2023-05-07T01:52:31.182Z,27.40
2023-05-07T02:23:57.452Z,27.40
2023-05-07T02:31:57.059Z,27.50
2023-05-07T02:43:49.439Z,27.20
2023-05-07T02:48:50.791Z,27.10
2023-05-07T02:56:04.132Z,27.80
2023-05-07T03:08:52.458Z,27.90
2023-05-07T04:11:26.842Z,28.90
2023-05-07T04:15:45.462Z,28.80
2023-05-07T04:29:21.146Z,28.30
2023-05-07T04:33:32.892Z,28.40
2023-05-07T04:36:35.097Z,28.90
2023-05-07T04:40:59.073Z,28.80
2023-05-07T04:44:59.055Z,29.10
2023-05-07T04:48:50.374Z,29.50
2023-05-07T04:51:52.713Z,30.60
2023-05-07T05:04:11.358Z,31.40
2023-05-07T05:07:14.452Z,31.40
2023-05-07T05:15:18.801Z,30.30
2023-05-07T05:24:14.313Z,31.20
2023-05-07T05:35:51.034Z,32.30
2023-05-07T05:42:26.230Z,31.80
2023-05-07T05:46:19.621Z,32.30
2023-05-07T05:51:09.582Z,32.40
2023-05-07T05:54:11.912Z,32.60
2023-05-07T05:58:23.239Z,31.80
2023-05-07T06:05:28.013Z,31.00
2023-05-07T06:18:32.930Z,31.70
2023-05-07T06:26:48.885Z,31.80
2023-05-07T06:39:25.670Z,32.40
2023-05-07T06:53:24.995Z,31.70
2023-05-07T06:56:54.096Z,32.10
2023-05-07T07:00:23.096Z,31.10
2023-05-07T07:08:56.497Z,31.30
2023-05-07T07:12:06.274Z,30.90
2023-05-07T07:15:09.061Z,30.10
2023-05-07T07:18:11.683Z,30.80
2023-05-07T07:34:51.450Z,32.00
2023-05-07T07:38:03.105Z,32.10
2023-05-07T07:41:05.286Z,31.50
2023-05-07T07:47:11.484Z,31.70
2023-05-07T08:02:52.006Z,29.60
2023-05-07T08:07:03.714Z,30.30
2023-05-07T08:10:22.507Z,30.60
2023-05-07T08:13:25.038Z,30.60
2023-05-07T08:16:41.558Z,29.90
2023-05-07T08:19:46.670Z,29.50
2023-05-07T08:22:53.655Z,29.10
2023-05-07T08:35:27.739Z,29.60
2023-05-07T08:38:29.994Z,29.90
2023-05-07T08:51:08.014Z,29.70
2023-05-07T08:54:12.584Z,29.70
2023-05-07T08:57:40.664Z,29.10
2023-05-07T09:02:17.194Z,30.00
2023-05-07T09:05:38.395Z,29.30
2023-05-07T09:08:40.723Z,29.20
2023-05-07T09:13:40.302Z,30.00
2023-05-07T09:17:07.144Z,29.80
2023-05-07T09:20:11.086Z,29.60
2023-05-07T09:23:16.430Z,30.20
2023-05-07T09:26:19.134Z,30.60
2023-05-07T09:29:21.564Z,30.70
2023-05-07T09:32:23.555Z,29.80
2023-05-07T09:35:36.442Z,29.50
2023-05-07T09:38:39.362Z,29.80
2023-05-07T09:41:46.346Z,29.20
2023-05-07T09:44:48.812Z,29.50
2023-05-07T09:47:56.258Z,29.80
2023-05-07T09:51:09.927Z,29.50
2023-05-07T09:54:18.666Z,29.10
2023-05-07T09:57:21.587Z,29.30
2023-05-07T10:00:27.894Z,29.00
2023-05-07T10:03:56.203Z,29.20
2023-05-07T10:07:21.563Z,29.20
2023-05-07T10:10:39.382Z,29.10
2023-05-07T10:18:04.544Z,30.10
2023-05-07T10:22:03.895Z,30.50
2023-05-07T10:25:33.902Z,30.70
2023-05-07T10:29:32.428Z,29.80
2023-05-07T10:32:57.956Z,30.50
2023-05-07T10:36:11.671Z,30.80
2023-05-07T10:39:40.316Z,30.40
2023-05-07T10:47:39.281Z,31.00
2023-05-07T10:51:22.139Z,30.70
2023-05-07T10:54:29.291Z,30.10
2023-05-07T10:57:37.337Z,30.20
2023-05-07T11:00:39.643Z,30.50
2023-05-07T11:04:24.796Z,30.60
2023-05-07T11:07:30.949Z,30.60
2023-05-07T11:10:56.116Z,31.10
2023-05-07T11:14:08.232Z,31.10
2023-05-07T11:17:19.436Z,30.70
2023-05-07T11:20:48.082Z,31.20
2023-05-07T11:24:28.916Z,31.40
2023-05-07T11:27:38.317Z,31.10
2023-05-07T11:38:49.174Z,30.60
2023-05-07T11:43:04.760Z,30.60
2023-05-07T11:46:21.753Z,30.30
2023-05-07T11:49:28.879Z,30.90
2023-05-07T11:52:32.146Z,31.10
2023-05-07T11:55:44.693Z,30.80
2023-05-07T11:58:49.981Z,31.20
2023-05-07T12:02:09.016Z,31.20
2023-05-07T12:05:20.896Z,31.60
2023-05-07T12:08:23.884Z,31.70
2023-05-07T12:11:27.888Z,31.60
2023-05-07T12:14:31.287Z,31.40
2023-05-07T12:17:34.085Z,30.90
2023-05-07T12:20:37.810Z,30.40
2023-05-07T12:23:40.956Z,30.20
2023-05-07T12:26:42.912Z,30.00
2023-05-07T12:30:15.601Z,30.70
2023-05-07T12:33:19.470Z,31.00
2023-05-07T12:36:22.492Z,30.80
2023-05-07T12:39:24.649Z,30.80
2023-05-07T12:42:27.563Z,31.40
2023-05-07T12:45:42.236Z,31.60
2023-05-07T12:48:49.688Z,31.10
2023-05-07T12:52:28.217Z,31.10
2023-05-07T12:55:51.554Z,30.80
2023-05-07T12:59:01.129Z,30.50
2023-05-07T13:02:03.743Z,30.90
2023-05-07T13:05:08.078Z,31.50
2023-05-07T13:08:10.714Z,32.10
2023-05-07T13:11:13.599Z,32.10
2023-05-07T13:14:18.749Z,32.00
2023-05-07T13:17:49.388Z,31.90
2023-05-07T13:20:58.677Z,31.70
2023-05-07T13:24:04.314Z,31.90
2023-05-07T13:27:06.655Z,31.70
2023-05-07T13:30:08.820Z,32.10
2023-05-07T13:33:11.348Z,32.50
2023-05-07T13:36:17.428Z,32.30
2023-05-07T13:39:20.253Z,32.20
2023-05-07T13:42:22.424Z,31.80
2023-05-07T13:46:03.286Z,32.30
2023-05-07T13:49:35.240Z,32.50
2023-05-07T13:52:41.519Z,32.70
2023-05-07T13:55:43.992Z,32.30
2023-05-07T13:58:58.920Z,32.40
2023-05-07T14:02:12.173Z,32.90
2023-05-07T14:05:22.681Z,33.10
2023-05-07T14:08:31.860Z,32.90
2023-05-07T14:11:36.470Z,33.10
2023-05-07T14:14:39.019Z,32.90
2023-05-07T14:17:41.032Z,32.70
2023-05-07T14:20:52.719Z,32.40
2023-05-07T14:23:57.656Z,32.80
2023-05-07T14:27:00.604Z,32.90
2023-05-07T14:30:03.206Z,32.90
2023-05-07T14:33:08.438Z,32.80
2023-05-07T14:36:10.693Z,32.80
2023-05-07T14:39:18.199Z,32.60
2023-05-07T14:43:07.057Z,32.80
2023-05-07T14:46:09.470Z,32.80
2023-05-07T14:49:21.621Z,32.80
2023-05-07T14:52:41.228Z,32.70
2023-05-07T14:55:49.194Z,32.70
2023-05-07T14:58:51.807Z,32.50
2023-05-07T15:02:21.658Z,32.90
2023-05-07T15:05:48.644Z,32.00
2023-05-07T15:09:04.952Z,32.50
2023-05-07T15:12:14.482Z,32.40
2023-05-07T15:15:16.851Z,32.20
2023-05-07T15:21:25.425Z,32.20
2023-05-07T15:24:29.389Z,31.90
2023-05-07T15:27:32.452Z,32.20
2023-05-07T15:30:47.194Z,32.30
2023-05-07T15:34:05.633Z,32.00
2023-05-07T15:37:25.873Z,31.60
2023-05-07T15:41:31.989Z,31.50
2023-05-07T15:44:54.826Z,31.30
2023-05-07T15:51:45.330Z,31.00
2023-05-07T15:55:27.521Z,31.20
2023-05-07T15:58:41.822Z,31.50
2023-05-07T16:01:57.284Z,31.50
2023-05-07T16:05:12.048Z,32.10
2023-05-07T16:08:20.338Z,32.40
2023-05-07T16:15:32.321Z,32.20
2023-05-07T16:19:07.335Z,31.70
2023-05-07T16:23:03.580Z,31.70
2023-05-07T16:25:51.167Z,31.40
2023-05-07T16:30:15.405Z,31.10
2023-05-07T16:37:10.180Z,32.00
2023-05-07T16:40:13.920Z,32.60
2023-05-07T16:43:16.587Z,32.40
2023-05-07T16:46:19.167Z,32.40
2023-05-07T16:49:24.915Z,32.30
2023-05-07T16:52:39.273Z,31.80
2023-05-07T16:55:45.746Z,31.70
2023-05-07T16:58:54.676Z,31.20
2023-05-07T17:01:58.454Z,30.80
2023-05-07T17:05:35.006Z,31.30
2023-05-07T17:09:02.053Z,31.40
2023-05-07T17:12:13.868Z,31.30
2023-05-07T17:15:46.330Z,31.40
2023-05-07T17:18:52.109Z,31.60
2023-05-07T17:21:54.354Z,31.70
2023-05-07T17:24:57.656Z,31.90
2023-05-07T17:28:19.157Z,31.80
2023-05-07T17:32:13.859Z,31.90
2023-05-07T17:36:18.499Z,31.90
2023-05-07T17:39:56.034Z,32.10
2023-05-07T17:43:58.410Z,32.10
2023-05-07T17:51:54.758Z,32.20
2023-05-07T18:03:57.784Z,32.20
2023-05-07T18:07:20.099Z,32.20
2023-05-07T18:11:00.990Z,32.20
2023-05-07T18:14:05.904Z,32.30
2023-05-07T18:17:33.605Z,32.30
2023-05-07T18:20:35.778Z,32.20
2023-05-07T18:23:39.330Z,32.20
2023-05-07T18:26:41.309Z,32.20
2023-05-07T18:29:46.335Z,32.20
2023-05-07T18:32:48.934Z,32.10
2023-05-07T18:35:51.407Z,32.00
2023-05-07T18:38:54.209Z,31.90
2023-05-07T18:41:57.954Z,31.80
2023-05-07T18:44:59.966Z,31.70
2023-05-07T18:48:02.315Z,31.60
2023-05-07T18:51:04.372Z,31.60
2023-05-07T18:54:07.961Z,31.50
2023-05-07T18:57:09.973Z,31.30
2023-05-07T19:00:13.387Z,31.30
2023-05-07T19:03:17.122Z,31.30
2023-05-07T19:06:21.236Z,31.20
2023-05-07T19:09:23.330Z,31.10
2023-05-07T19:12:25.973Z,30.90
2023-05-07T19:15:27.996Z,30.80
2023-05-07T19:18:31.926Z,30.60
2023-05-07T19:21:34.081Z,30.60
2023-05-07T19:24:37.212Z,30.60
2023-05-07T19:27:39.730Z,30.60
2023-05-07T19:30:42.821Z,30.60
2023-05-07T19:33:45.121Z,30.60
2023-05-07T19:36:47.536Z,30.70
2023-05-07T19:39:49.893Z,30.70
2023-05-07T19:42:52.495Z,30.60
2023-05-07T19:45:55.047Z,30.50
2023-05-07T19:48:57.443Z,30.50
2023-05-07T19:51:59.448Z,30.50
2023-05-07T19:55:01.842Z,30.60
2023-05-07T19:58:03.870Z,30.60
2023-05-07T20:01:06.812Z,30.60
2023-05-07T20:04:09.130Z,30.60
2023-05-07T20:07:11.639Z,30.50
2023-05-07T20:10:14.027Z,30.50
2023-05-07T20:13:17.399Z,30.40
2023-05-07T20:16:19.512Z,30.30
2023-05-07T20:19:23.936Z,30.30
2023-05-07T20:22:26.253Z,30.20
2023-05-07T20:25:34.583Z,30.10
2023-05-07T20:28:36.675Z,30.00
2023-05-07T20:31:39.549Z,30.00
2023-05-07T20:34:42.098Z,29.90
2023-05-07T20:37:44.498Z,29.80
2023-05-07T20:40:46.784Z,29.80
2023-05-07T20:43:49.113Z,29.80
2023-05-07T20:46:51.192Z,29.70
2023-05-07T20:49:54.983Z,29.70
2023-05-07T20:52:56.961Z,29.70
2023-05-07T20:55:59.729Z,29.60
2023-05-07T20:59:06.739Z,29.60
2023-05-07T21:02:17.297Z,29.50
2023-05-07T21:05:36.255Z,29.40
2023-05-07T21:08:38.611Z,29.40
2023-05-07T21:11:40.935Z,29.40
2023-05-07T21:14:43.459Z,29.30
2023-05-07T21:17:45.454Z,29.20
2023-05-07T21:20:50.492Z,29.10
2023-05-07T21:23:53.455Z,29.10
2023-05-07T21:27:00.569Z,29.20
2023-05-07T21:30:05.565Z,29.20
2023-05-07T21:33:11.261Z,29.20
2023-05-07T21:36:13.483Z,29.20
2023-05-07T21:39:16.064Z,29.20
2023-05-07T21:42:23.681Z,29.10
2023-05-07T21:45:26.572Z,29.10
2023-05-07T21:48:28.477Z,29.00
2023-05-07T21:51:32.658Z,29.00
2023-05-07T21:54:34.740Z,28.90
2023-05-07T21:57:37.819Z,28.90
2023-05-07T22:00:39.868Z,28.80
2023-05-07T22:03:42.368Z,28.80
2023-05-07T22:06:44.319Z,28.70
2023-05-07T22:09:46.553Z,28.80
2023-05-07T22:12:48.865Z,28.70
2023-05-07T22:15:57.569Z,28.70
2023-05-07T22:19:00.932Z,28.70
2023-05-07T22:22:03.554Z,28.70
2023-05-07T22:25:06.181Z,28.60
2023-05-07T22:28:08.405Z,28.60
2023-05-07T22:31:11.300Z,28.60
2023-05-07T22:34:13.613Z,28.60
2023-05-07T22:37:15.884Z,28.60
2023-05-07T22:40:18.414Z,28.50
2023-05-07T22:43:20.442Z,28.50
2023-05-07T22:46:25.844Z,28.50
2023-05-07T22:49:30.860Z,28.50
2023-05-07T22:52:35.672Z,28.50
2023-05-07T22:55:37.654Z,28.50
2023-05-07T22:58:40.267Z,28.40
2023-05-07T23:01:42.272Z,28.50
2023-05-07T23:04:44.640Z,28.40
2023-05-07T23:07:46.606Z,28.40
2023-05-07T23:10:51.736Z,28.40
2023-05-07T23:13:53.706Z,28.30
2023-05-07T23:16:56.272Z,28.30
2023-05-07T23:19:58.523Z,28.30
2023-05-07T23:23:01.191Z,28.30
2023-05-07T23:26:03.259Z,28.10
2023-05-07T23:29:05.479Z,28.10
2023-05-07T23:32:07.511Z,28.00
2023-05-07T23:35:12.913Z,28.00
2023-05-07T23:38:15.012Z,28.00
2023-05-07T23:41:17.234Z,28.10
2023-05-07T23:44:19.391Z,28.10
2023-05-07T23:47:21.734Z,28.10
2023-05-07T23:50:23.857Z,28.10
2023-05-07T23:53:26.323Z,28.10
2023-05-07T23:56:28.359Z,28.10
2023-05-07T23:59:30.752Z,28.10
